Time;durP1;ratioP1;P1;durP2;ratioP2;P2;SDS_P1;SDS_P2;PMS_P1;PMS_P2;Temp;Humidity;BMP_temperature;BMP_pressure;BME280_temperature;BME280_humidity;BME280_pressure;Samples;Min_cycle;Max_cycle;Signal;HPM_P1;HPM_P2
2023/12/12 00:01:59;;;;;;;1999.90;999.90;;;7.80;99.90;;;;;;5030144;28;20042;-70
2023/12/12 00:04:25;;;;;;;1999.90;999.90;;;7.80;99.90;;;;;;5032858;28;20029;-71
2023/12/12 00:06:51;;;;;;;1999.90;999.90;;;7.80;99.90;;;;;;5034002;28;20265;-71
2023/12/12 00:09:16;;;;;;;1999.90;999.90;;;7.80;99.90;;;;;;5032793;28;20024;-71
2023/12/12 00:11:42;;;;;;;1999.90;999.90;;;7.80;99.90;;;;;;5031282;28;20033;-70
2023/12/12 00:14:08;;;;;;;1999.90;999.90;;;7.80;99.90;;;;;;5033350;28;20033;-71
2023/12/12 00:16:34;;;;;;;1999.90;999.90;;;7.80;99.90;;;;;;5033358;28;20389;-71
2023/12/12 00:19:00;;;;;;;1999.90;999.90;;;7.80;99.90;;;;;;5027292;28;20033;-71
2023/12/12 00:21:26;;;;;;;1999.90;999.90;;;7.80;99.90;;;;;;5033227;28;20037;-71
2023/12/12 00:23:52;;;;;;;1999.90;999.90;;;7.80;99.90;;;;;;5033579;28;20025;-71
2023/12/12 00:26:18;;;;;;;1999.90;999.90;;;7.80;99.90;;;;;;5032941;28;20083;-71
2023/12/12 00:28:44;;;;;;;1999.90;999.90;;;7.80;99.90;;;;;;5032897;28;20037;-71
2023/12/12 00:31:10;;;;;;;1999.90;999.90;;;7.90;99.90;;;;;;5031779;28;20025;-71
2023/12/12 00:33:36;;;;;;;1999.90;999.90;;;7.90;99.90;;;;;;5032430;28;20370;-71
2023/12/12 00:36:02;;;;;;;1999.90;999.90;;;7.90;99.90;;;;;;5033260;28;20098;-71
2023/12/12 00:38:30;;;;;;;1999.90;999.90;;;8.00;99.90;;;;;;5032796;28;20033;-71
2023/12/12 00:40:56;;;;;;;1999.90;999.90;;;7.90;99.90;;;;;;5033364;28;20475;-71
2023/12/12 00:43:23;;;;;;;1999.90;999.90;;;7.90;99.90;;;;;;5031158;28;20065;-71
2023/12/12 00:45:49;;;;;;;1999.90;999.90;;;7.90;99.90;;;;;;5033421;28;20060;-71
2023/12/12 00:48:15;;;;;;;1999.90;999.90;;;8.00;99.90;;;;;;5031594;28;20087;-71
2023/12/12 00:50:40;;;;;;;1999.90;999.90;;;8.00;99.90;;;;;;5032159;28;20034;-71
2023/12/12 00:53:06;;;;;;;1999.90;999.90;;;7.90;99.90;;;;;;5017220;28;20064;-71
2023/12/12 00:55:32;;;;;;;1999.90;999.90;;;7.90;99.90;;;;;;5030072;28;20048;-71
2023/12/12 00:57:58;;;;;;;1999.90;999.90;;;7.90;99.90;;;;;;5032809;28;20025;-71
2023/12/12 01:00:23;;;;;;;1999.90;999.90;;;7.90;99.90;;;;;;5027225;28;20395;-71
2023/12/12 01:02:49;;;;;;;1999.90;999.90;;;7.90;99.90;;;;;;5033440;28;20034;-70
2023/12/12 01:05:15;;;;;;;1999.90;999.90;;;7.90;99.90;;;;;;5033113;28;20100;-71
2023/12/12 01:07:41;;;;;;;1999.90;999.90;;;7.90;99.90;;;;;;5032919;28;20022;-71
2023/12/12 01:10:08;;;;;;;1999.90;999.90;;;7.80;99.90;;;;;;5033112;28;20072;-71
2023/12/12 01:12:34;;;;;;;1999.90;999.90;;;7.70;99.90;;;;;;5031439;28;20408;-71
2023/12/12 01:15:00;;;;;;;1999.90;999.90;;;7.70;99.90;;;;;;5024816;28;20033;-71
2023/12/12 01:17:26;;;;;;;1999.90;999.90;;;7.60;99.90;;;;;;5027331;28;20029;-71
2023/12/12 01:19:52;;;;;;;1999.90;999.90;;;7.50;99.90;;;;;;5032940;28;20025;-71
2023/12/12 01:22:18;;;;;;;1999.90;999.90;;;7.40;99.90;;;;;;5033198;28;20083;-71
2023/12/12 01:24:44;;;;;;;1999.90;999.90;;;7.30;99.90;;;;;;5032494;28;20030;-71
2023/12/12 01:27:10;;;;;;;1999.90;999.90;;;7.20;99.90;;;;;;5032789;28;20091;-71
2023/12/12 01:29:36;;;;;;;1999.90;999.90;;;7.10;99.90;;;;;;5030960;28;20388;-71
2023/12/12 01:32:02;;;;;;;1999.90;999.90;;;7.00;99.90;;;;;;5033122;28;20030;-71
2023/12/12 01:34:28;;;;;;;1999.90;999.90;;;6.80;99.90;;;;;;5017662;28;20033;-71
2023/12/12 01:36:54;;;;;;;1999.90;999.90;;;6.70;99.90;;;;;;5017433;28;20041;-71
2023/12/12 01:39:19;;;;;;;1999.90;999.90;;;6.70;99.90;;;;;;5033131;28;20033;-71
2023/12/12 01:41:46;;;;;;;1999.90;999.90;;;6.50;99.90;;;;;;5032159;28;20041;-71
2023/12/12 01:44:12;;;;;;;;;;;6.50;99.90;;;;;;5031772;28;20108;-71
2023/12/12 01:46:38;;;;;;;1999.90;999.90;;;6.50;99.90;;;;;;5035110;28;19993;-71
2023/12/12 01:49:05;;;;;;;1999.90;999.90;;;6.50;99.90;;;;;;5027440;28;21078;-71
2023/12/12 01:51:31;;;;;;;1999.90;999.90;;;6.40;99.90;;;;;;5030765;28;20349;-71
2023/12/12 01:54:00;;;;;;;1999.90;999.90;;;6.30;99.90;;;;;;5031696;28;20026;-71
2023/12/12 01:56:28;;;;;;;1999.90;999.90;;;6.30;99.90;;;;;;5038827;28;20420;-71
2023/12/12 01:58:56;;;;;;;1999.90;999.90;;;6.20;99.90;;;;;;5031819;28;20051;-71
2023/12/12 02:01:22;;;;;;;1999.90;999.90;;;6.10;99.90;;;;;;5035821;28;20072;-71
2023/12/12 02:03:50;;;;;;;1999.90;999.90;;;6.10;99.90;;;;;;5035482;28;20029;-71
2023/12/12 02:06:22;;;;;;;1999.90;999.90;;;6.00;99.90;;;;;;5035910;28;20477;-71
2023/12/12 02:08:52;;;;;;;1999.90;999.90;;;6.10;99.90;;;;;;5030357;28;20409;-71
2023/12/12 02:11:18;;;;;;;1999.90;999.90;;;6.10;99.90;;;;;;5035650;28;20025;-71
2023/12/12 02:13:45;;;;;;;1999.90;999.90;;;6.10;99.90;;;;;;5036159;28;20033;-71
2023/12/12 02:16:12;;;;;;;1999.90;999.90;;;5.90;99.90;;;;;;5029995;28;20428;-71
2023/12/12 02:18:38;;;;;;;1999.90;999.90;;;5.90;99.90;;;;;;5033053;28;20329;-71
2023/12/12 02:21:04;;;;;;;1999.90;999.90;;;5.90;99.90;;;;;;5034455;28;20150;-71
2023/12/12 02:23:31;;;;;;;1999.90;999.90;;;5.90;99.90;;;;;;5034815;28;20025;-71
2023/12/12 02:26:01;;;;;;;1999.90;999.90;;;5.80;99.90;;;;;;5025923;28;20063;-71
2023/12/12 02:28:27;;;;;;;1999.90;999.90;;;5.70;99.90;;;;;;5027287;28;20472;-71
2023/12/12 02:30:54;;;;;;;1999.90;999.90;;;5.60;99.90;;;;;;5028584;28;20113;-71
2023/12/12 02:33:20;;;;;;;1999.90;999.90;;;5.60;99.90;;;;;;5031820;28;20049;-71
2023/12/12 02:35:46;;;;;;;1999.90;999.90;;;5.50;99.90;;;;;;5032149;28;20029;-71
2023/12/12 02:38:13;;;;;;;1999.90;999.90;;;5.50;99.90;;;;;;5035510;28;20033;-70
2023/12/12 02:40:39;;;;;;;1999.90;999.90;;;5.50;99.90;;;;;;5033962;28;20441;-70
2023/12/12 02:43:05;;;;;;;1999.90;999.90;;;5.40;99.90;;;;;;5035500;28;20033;-71
2023/12/12 02:45:31;;;;;;;1999.90;999.90;;;5.40;99.90;;;;;;5035405;28;20795;-71
2023/12/12 02:47:56;;;;;;;1999.90;999.90;;;5.30;99.90;;;;;;5028327;28;20106;-71
2023/12/12 02:50:22;;;;;;;1999.90;999.90;;;5.30;99.90;;;;;;5034796;28;20030;-71
2023/12/12 02:52:48;;;;;;;1999.90;999.90;;;5.30;99.90;;;;;;5034620;28;20026;-71
2023/12/12 02:55:13;;;;;;;1999.90;999.90;;;5.20;99.90;;;;;;5034894;28;20037;-71
2023/12/12 02:57:39;;;;;;;1999.90;999.90;;;5.20;99.90;;;;;;5035098;28;20036;-70
2023/12/12 03:00:05;;;;;;;1999.90;999.90;;;5.20;99.90;;;;;;5033806;28;20041;-71
2023/12/12 03:02:33;;;;;;;1999.90;999.90;;;5.20;99.90;;;;;;5035127;28;20083;-71
2023/12/12 03:04:58;;;;;;;1999.90;999.90;;;5.30;99.90;;;;;;5034085;28;20025;-71
2023/12/12 03:07:24;;;;;;;1999.90;999.90;;;5.30;99.90;;;;;;5030048;28;20043;-71
2023/12/12 03:09:50;;;;;;;1999.90;999.90;;;5.30;99.90;;;;;;5034500;28;20036;-70
2023/12/12 03:12:16;;;;;;;1999.90;999.90;;;5.30;99.90;;;;;;5035058;28;20026;-71
2023/12/12 03:14:42;;;;;;;1999.90;999.90;;;5.40;99.90;;;;;;5034775;28;20036;-71
2023/12/12 03:17:08;;;;;;;1999.90;999.90;;;5.40;99.90;;;;;;5034595;28;20340;-71
2023/12/12 03:19:34;;;;;;;1999.90;999.90;;;5.40;99.90;;;;;;5034891;28;20263;-71
2023/12/12 03:21:59;;;;;;;1999.90;999.90;;;5.40;99.90;;;;;;5034149;28;20278;-71
2023/12/12 03:24:26;;;;;;;1999.90;999.90;;;5.30;99.90;;;;;;5034276;28;20025;-70
2023/12/12 03:26:51;;;;;;;1999.90;999.90;;;5.30;99.90;;;;;;5034125;28;20136;-70
2023/12/12 03:29:17;;;;;;;1999.90;999.90;;;5.30;99.90;;;;;;5034714;28;20053;-71
2023/12/12 03:31:43;;;;;;;1999.90;999.90;;;5.30;99.90;;;;;;5033118;28;20028;-71
2023/12/12 03:34:08;;;;;;;1999.90;999.90;;;5.30;99.90;;;;;;5046370;28;20048;-71
2023/12/12 03:36:35;;;;;;;1999.90;999.90;;;5.40;99.90;;;;;;5034784;28;20030;-71
2023/12/12 03:39:02;;;;;;;1999.90;999.90;;;5.40;99.90;;;;;;5033731;28;20424;-71
2023/12/12 03:41:28;;;;;;;;;;;5.40;99.90;;;;;;5026821;28;20437;-71
2023/12/12 03:43:53;;;;;;;1999.90;999.90;;;5.40;99.90;;;;;;5033546;28;19917;-71
2023/12/12 03:46:20;;;;;;;1999.90;999.90;;;5.40;99.90;;;;;;5033207;28;20127;-70
2023/12/12 03:48:46;;;;;;;1999.90;999.90;;;5.40;99.90;;;;;;5034152;28;20026;-71
2023/12/12 03:51:12;;;;;;;1999.90;999.90;;;5.50;99.90;;;;;;5034145;28;20025;-71
2023/12/12 03:53:39;;;;;;;1999.90;999.90;;;5.50;99.90;;;;;;5034176;28;20057;-71
2023/12/12 03:56:08;;;;;;;1999.90;999.90;;;5.50;99.90;;;;;;5033550;28;20058;-71
2023/12/12 03:58:34;;;;;;;1999.90;999.90;;;5.60;99.90;;;;;;5034437;28;20052;-71
2023/12/12 04:01:00;;;;;;;1999.90;999.90;;;5.60;99.90;;;;;;5032941;28;20377;-71
2023/12/12 04:03:26;;;;;;;1999.90;999.90;;;5.70;99.90;;;;;;5033283;28;20116;-72
2023/12/12 04:05:52;;;;;;;1999.90;999.90;;;5.70;99.90;;;;;;5032936;28;20025;-71
2023/12/12 04:08:17;;;;;;;1999.90;999.90;;;5.80;99.90;;;;;;5028676;28;20059;-71
2023/12/12 04:10:43;;;;;;;1999.90;999.90;;;5.80;99.90;;;;;;5033567;28;20091;-71
2023/12/12 04:13:09;;;;;;;1999.90;999.90;;;5.90;99.90;;;;;;5033493;28;20391;-70
2023/12/12 04:15:35;;;;;;;1999.90;999.90;;;5.90;99.90;;;;;;5033492;28;20032;-70
2023/12/12 04:18:01;;;;;;;1999.90;999.90;;;5.90;99.90;;;;;;5033596;28;20030;-70
2023/12/12 04:20:26;;;;;;;1999.90;999.90;;;5.90;99.90;;;;;;5032678;28;20052;-70
2023/12/12 04:22:52;;;;;;;1999.90;999.90;;;5.90;99.90;;;;;;5033304;28;20420;-71
2023/12/12 04:25:19;;;;;;;1999.90;999.90;;;5.90;99.90;;;;;;5032599;28;20032;-71
2023/12/12 04:27:46;;;;;;;1999.90;999.90;;;6.00;99.90;;;;;;5033367;28;20025;-71
2023/12/12 04:30:11;;;;;;;1999.90;999.90;;;6.00;99.90;;;;;;5026845;28;20033;-70
2023/12/12 04:32:37;;;;;;;1999.90;999.90;;;6.00;99.90;;;;;;5026707;28;20085;-71
2023/12/12 04:35:09;;;;;;;1999.90;999.90;;;6.10;99.90;;;;;;5026406;28;20405;-71
2023/12/12 04:37:35;;;;;;;1999.90;999.90;;;6.00;99.90;;;;;;5033229;28;20037;-71
2023/12/12 04:40:01;;;;;;;1999.90;999.90;;;6.00;99.90;;;;;;5033218;28;20033;-71
2023/12/12 04:42:27;;;;;;;1999.90;999.90;;;6.10;99.90;;;;;;5030470;28;20282;-71
2023/12/12 04:44:53;;;;;;;1999.90;999.90;;;6.10;99.90;;;;;;5033622;28;20021;-71
2023/12/12 04:47:19;;;;;;;1999.90;999.90;;;6.10;99.90;;;;;;5032816;28;20424;-70
2023/12/12 04:49:45;;;;;;;1999.90;999.90;;;6.20;99.90;;;;;;5033712;28;20417;-71
2023/12/12 04:52:10;;;;;;;1999.90;999.90;;;6.20;99.90;;;;;;5033248;28;20026;-71
2023/12/12 04:54:36;;;;;;;1999.90;999.90;;;6.20;99.90;;;;;;5032841;28;20022;-71
2023/12/12 04:57:02;;;;;;;1999.90;999.90;;;6.20;99.90;;;;;;5033354;28;20426;-71
2023/12/12 04:59:28;;;;;;;1999.90;999.90;;;6.10;99.90;;;;;;5029941;28;20022;-71
2023/12/12 05:01:54;;;;;;;1999.90;999.90;;;6.00;99.90;;;;;;5031761;28;20358;-71
2023/12/12 05:04:20;;;;;;;1999.90;999.90;;;6.00;99.90;;;;;;5032584;28;20108;-71
2023/12/12 05:06:46;;;;;;;1999.90;999.90;;;6.10;99.90;;;;;;5033117;28;20063;-71
2023/12/12 05:09:12;;;;;;;1999.90;999.90;;;6.10;99.90;;;;;;5033064;28;20030;-71
2023/12/12 05:11:38;;;;;;;1999.90;999.90;;;6.00;99.90;;;;;;5031601;28;20116;-71
2023/12/12 05:14:06;;;;;;;1999.90;999.90;;;5.90;99.90;;;;;;5028812;28;20112;-71
2023/12/12 05:16:32;;;;;;;1999.90;999.90;;;5.90;99.90;;;;;;5036296;28;20048;-71
2023/12/12 05:18:58;;;;;;;1999.90;999.90;;;5.90;99.90;;;;;;5037426;28;20340;-71
2023/12/12 05:21:25;;;;;;;1999.90;999.90;;;5.90;99.90;;;;;;5036359;28;20335;-71
2023/12/12 05:23:51;;;;;;;1999.90;999.90;;;6.00;99.90;;;;;;5037074;28;20344;-70
2023/12/12 05:26:19;;;;;;;1999.90;999.90;;;5.90;99.90;;;;;;5036853;28;20025;-71
2023/12/12 05:28:45;;;;;;;1999.90;999.90;;;5.80;99.90;;;;;;5036167;28;20021;-71
2023/12/12 05:31:11;;;;;;;1999.90;999.90;;;5.80;99.90;;;;;;5037119;28;20025;-71
2023/12/12 05:33:37;;;;;;;1999.90;999.90;;;5.70;99.90;;;;;;5022285;28;20663;-71
2023/12/12 05:36:04;;;;;;;1999.90;999.90;;;5.70;99.90;;;;;;5035489;28;20087;-71
2023/12/12 05:38:29;;;;;;;1999.90;999.90;;;5.70;99.90;;;;;;5036877;28;20071;-70
2023/12/12 05:40:56;;;;;;;1999.90;999.90;;;5.70;99.90;;;;;;5032669;28;20073;-71
2023/12/12 05:43:22;;;;;;;1999.90;999.90;;;5.60;99.90;;;;;;5027978;28;20027;-71
2023/12/12 05:45:48;;;;;;;1999.90;999.90;;;5.50;99.90;;;;;;5028642;28;20026;-71
2023/12/12 05:48:13;;;;;;;1999.90;999.90;;;5.50;99.90;;;;;;5036892;28;20021;-71
2023/12/12 05:50:39;;;;;;;1999.90;999.90;;;5.50;99.90;;;;;;5035308;28;20030;-71
2023/12/12 05:53:05;;;;;;;1999.90;999.90;;;5.60;99.90;;;;;;5035072;28;20052;-71
2023/12/12 05:55:31;;;;;;;1999.90;999.90;;;5.70;99.90;;;;;;5032049;28;20052;-71
2023/12/12 05:57:57;;;;;;;1999.90;999.90;;;5.70;99.90;;;;;;5030106;28;20025;-70
2023/12/12 06:00:23;;;;;;;1999.90;999.90;;;5.70;99.90;;;;;;5033859;28;20308;-71
2023/12/12 06:02:49;;;;;;;1999.90;999.90;;;5.70;99.90;;;;;;5042514;28;20028;-71
2023/12/12 06:05:14;;;;;;;1999.90;999.90;;;5.70;99.90;;;;;;5039407;28;20045;-71
2023/12/12 06:07:42;;;;;;;1999.90;999.90;;;5.70;99.90;;;;;;5027154;28;20317;-71
2023/12/12 06:10:08;;;;;;;1999.90;999.90;;;5.70;99.90;;;;;;5041756;28;20025;-71
2023/12/12 06:12:35;;;;;;;1999.90;999.90;;;5.60;99.90;;;;;;5031333;28;20040;-71
2023/12/12 06:15:01;;;;;;;1999.90;999.90;;;5.60;99.90;;;;;;5031882;28;20108;-71
2023/12/12 06:17:27;;;;;;;1999.90;999.90;;;5.60;99.90;;;;;;5032945;28;20056;-71
2023/12/12 06:19:53;;;;;;;1999.90;999.90;;;5.50;99.90;;;;;;5030880;28;20056;-71
2023/12/12 06:22:19;;;;;;;1999.90;999.90;;;5.50;99.90;;;;;;5039659;28;20436;-71
2023/12/12 06:24:45;;;;;;;1999.90;999.90;;;5.50;99.90;;;;;;5028883;28;20108;-71
2023/12/12 06:27:12;;;;;;;1999.90;999.90;;;5.60;99.90;;;;;;5034289;28;20266;-71
2023/12/12 06:29:38;;;;;;;1999.90;999.90;;;5.60;99.90;;;;;;5028760;28;20026;-71
2023/12/12 06:32:04;;;;;;;1999.90;999.90;;;5.60;99.90;;;;;;5019296;28;20037;-71
2023/12/12 06:34:30;;;;;;;1999.90;999.90;;;5.60;99.90;;;;;;5034056;28;20517;-71
2023/12/12 06:36:56;;;;;;;1999.90;999.90;;;5.70;99.90;;;;;;5034411;28;20045;-70
2023/12/12 06:39:22;;;;;;;1999.90;999.90;;;5.70;99.90;;;;;;5042553;28;20036;-71
2023/12/12 06:41:47;;;;;;;1999.90;999.90;;;5.80;99.90;;;;;;5025545;28;20046;-71
2023/12/12 06:44:13;;;;;;;1999.90;999.90;;;5.80;99.90;;;;;;5022628;28;20054;-70
2023/12/12 06:46:39;;;;;;;1999.90;999.90;;;5.90;99.90;;;;;;5030604;28;20317;-71
2023/12/12 06:49:09;;;;;;;1999.90;999.90;;;6.00;99.90;;;;;;5026204;28;20030;-71
2023/12/12 06:51:35;;;;;;;1999.90;999.90;;;6.10;99.90;;;;;;5030892;28;20321;-71
2023/12/12 06:54:03;;;;;;;1999.90;999.90;;;6.20;99.90;;;;;;5029057;28;20018;-71
2023/12/12 06:56:30;;;;;;;1999.90;999.90;;;6.20;99.90;;;;;;5022426;28;20028;-71
2023/12/12 06:58:56;;;;;;;1999.90;999.90;;;6.20;99.90;;;;;;5019398;28;20025;-71
2023/12/12 07:01:22;;;;;;;1999.90;999.90;;;6.10;99.90;;;;;;5033347;28;20101;-70
2023/12/12 07:03:48;;;;;;;1999.90;999.90;;;6.10;99.90;;;;;;5029221;28;20109;-71
2023/12/12 07:06:18;;;;;;;1999.90;999.90;;;6.10;99.90;;;;;;5036458;28;20021;-71
2023/12/12 07:08:45;;;;;;;1999.90;999.90;;;6.00;99.90;;;;;;5028630;28;20025;-71
2023/12/12 07:11:13;;;;;;;1999.90;999.90;;;6.00;99.90;;;;;;5030280;28;20100;-71
2023/12/12 07:13:39;;;;;;;1999.90;999.90;;;5.90;99.90;;;;;;5018210;28;20030;-71
2023/12/12 07:16:05;;;;;;;1999.90;999.90;;;6.00;99.90;;;;;;5024369;28;20080;-71
2023/12/12 07:18:31;;;;;;;1999.90;999.90;;;6.00;99.90;;;;;;5024621;28;20351;-71
2023/12/12 07:20:59;;;;;;;1999.90;999.90;;;6.10;99.90;;;;;;5035422;28;20254;-71
2023/12/12 07:23:25;;;;;;;1999.90;999.90;;;6.10;99.90;;;;;;5023329;28;20374;-70
2023/12/12 07:25:51;;;;;;;1999.90;999.90;;;6.10;99.90;;;;;;5026022;28;20105;-71
2023/12/12 07:28:17;;;;;;;1999.90;999.90;;;6.20;99.90;;;;;;5020290;28;20266;-71
2023/12/12 07:30:42;;;;;;;1999.90;999.90;;;6.30;99.90;;;;;;5036444;28;20018;-71
2023/12/12 07:33:08;;;;;;;1999.90;999.90;;;6.40;99.90;;;;;;5033186;28;20056;-71
2023/12/12 07:35:34;;;;;;;1999.90;999.90;;;6.40;99.90;;;;;;5033756;28;20484;-71
2023/12/12 07:38:01;;;;;;;1999.90;999.90;;;6.40;99.90;;;;;;5034826;28;20030;-71
2023/12/12 07:40:30;;;;;;;1999.90;999.90;;;6.50;99.90;;;;;;5033680;28;20109;-71
2023/12/12 07:42:56;;;;;;;1999.90;999.90;;;6.60;99.90;;;;;;5022211;28;20029;-71
2023/12/12 07:45:22;;;;;;;1999.90;999.90;;;6.60;99.90;;;;;;5034224;28;20048;-71
2023/12/12 07:47:48;;;;;;;1999.90;999.90;;;6.70;99.90;;;;;;5033752;28;20030;-71
2023/12/12 07:50:16;;;;;;;1999.90;999.90;;;6.70;99.90;;;;;;5033274;28;20041;-71
2023/12/12 07:52:42;;;;;;;1999.90;999.90;;;6.80;99.90;;;;;;5024606;28;20080;-71
2023/12/12 07:55:08;;;;;;;1999.90;999.90;;;6.80;99.90;;;;;;5033886;28;20409;-71
2023/12/12 07:57:34;;;;;;;1999.90;999.90;;;6.90;99.90;;;;;;5028426;28;20072;-71
2023/12/12 08:00:00;;;;;;;1999.90;999.90;;;7.00;99.90;;;;;;5034358;28;20071;-71
2023/12/12 08:02:26;;;;;;;1999.90;999.90;;;7.00;99.90;;;;;;5032442;28;20076;-71
2023/12/12 08:04:51;;;;;;;1999.90;999.90;;;7.00;99.90;;;;;;5027408;28;20021;-71
2023/12/12 08:07:17;;;;;;;1999.90;999.90;;;7.00;99.90;;;;;;5022384;28;20033;-71
2023/12/12 08:09:43;;;;;;;1999.90;999.90;;;7.10;99.90;;;;;;5022937;28;20061;-71
2023/12/12 08:12:09;;;;;;;1999.90;999.90;;;7.20;99.90;;;;;;5034813;28;20495;-71
2023/12/12 08:14:34;;;;;;;1999.90;999.90;;;7.30;99.90;;;;;;5027058;28;20022;-71
2023/12/12 08:17:00;;;;;;;1999.90;999.90;;;7.40;99.90;;;;;;5035900;28;20030;-71
2023/12/12 08:19:26;;;;;;;1999.90;999.90;;;7.40;99.90;;;;;;5024008;28;20021;-71
2023/12/12 08:21:52;;;;;;;1999.90;999.90;;;7.50;99.90;;;;;;5032619;28;20017;-70
2023/12/12 08:24:18;;;;;;;1999.90;999.90;;;7.60;99.90;;;;;;5025493;28;20316;-71
2023/12/12 08:26:46;;;;;;;1999.90;999.90;;;7.60;99.90;;;;;;5032097;28;20370;-71
2023/12/12 08:29:13;;;;;;;1999.90;999.90;;;7.60;99.90;;;;;;5025124;28;20029;-71
2023/12/12 08:31:39;;;;;;;1999.90;999.90;;;7.70;99.90;;;;;;5026768;28;20029;-71
2023/12/12 08:34:05;;;;;;;1999.90;999.90;;;7.70;99.90;;;;;;5029321;28;20333;-71
2023/12/12 08:36:31;;;;;;;1999.90;999.90;;;7.80;99.90;;;;;;5034574;28;20036;-71
2023/12/12 08:38:58;;;;;;;1999.90;999.90;;;7.80;99.90;;;;;;5036125;28;20033;-71
2023/12/12 08:41:28;;;;;;;1999.90;999.90;;;7.80;99.90;;;;;;5022044;28;20049;-71
2023/12/12 08:43:54;;;;;;;1999.90;999.90;;;7.80;99.90;;;;;;5028710;28;20384;-71
2023/12/12 08:46:26;;;;;;;1999.90;999.90;;;7.80;99.90;;;;;;5035177;28;20417;-71
2023/12/12 08:48:55;;;;;;;1999.90;999.90;;;7.90;99.90;;;;;;5042811;28;20079;-71
2023/12/12 08:51:30;;;;;;;1999.90;999.90;;;7.90;99.90;;;;;;5040976;28;20044;-71
2023/12/12 08:53:58;;;;;;;1999.90;999.90;;;7.90;99.90;;;;;;5030697;28;20057;-71
2023/12/12 08:56:25;;;;;;;1999.90;999.90;;;8.00;99.90;;;;;;5045197;28;20371;-71
2023/12/12 08:58:51;;;;;;;1999.90;999.90;;;8.00;99.90;;;;;;5030978;28;20038;-71
2023/12/12 09:01:17;;;;;;;1999.90;999.90;;;8.00;99.90;;;;;;5037100;28;20044;-71
2023/12/12 09:03:44;;;;;;;1999.90;999.90;;;8.00;99.90;;;;;;5028722;28;20033;-71
2023/12/12 09:06:10;;;;;;;1999.90;999.90;;;8.00;99.90;;;;;;5024698;28;20057;-71
2023/12/12 09:08:36;;;;;;;1999.90;999.90;;;8.10;99.90;;;;;;5035374;28;20312;-71
2023/12/12 09:11:02;;;;;;;1999.90;999.90;;;8.20;99.90;;;;;;5033778;28;20097;-70
2023/12/12 09:13:28;;;;;;;1999.90;999.90;;;8.30;99.90;;;;;;5035333;28;20056;-70
2023/12/12 09:15:55;;;;;;;1999.90;999.90;;;8.30;99.90;;;;;;5040160;28;20036;-71
2023/12/12 09:18:21;;;;;;;1999.90;999.90;;;8.30;99.90;;;;;;5030728;28;20033;-71
2023/12/12 09:20:47;;;;;;;1999.90;999.90;;;8.30;99.90;;;;;;5025790;28;20029;-70
2023/12/12 09:23:13;;;;;;;1999.90;999.90;;;8.40;99.90;;;;;;5023791;28;20368;-71
2023/12/12 09:25:39;;;;;;;1999.90;999.90;;;8.50;99.90;;;;;;5028864;28;20037;-71
2023/12/12 09:28:05;;;;;;;1999.90;999.90;;;8.50;99.90;;;;;;5018160;28;20316;-71
2023/12/12 09:30:31;;;;;;;1999.90;999.90;;;8.50;99.90;;;;;;5031053;28;20044;-71
2023/12/12 09:32:57;;;;;;;1999.90;999.90;;;8.50;99.90;;;;;;5040025;28;20047;-71
2023/12/12 09:35:24;;;;;;;1999.90;999.90;;;8.50;99.90;;;;;;5028955;28;20037;-71
2023/12/12 09:37:50;;;;;;;1999.90;999.90;;;8.60;99.90;;;;;;5030806;28;20063;-71
2023/12/12 09:40:16;;;;;;;1999.90;999.90;;;8.60;99.90;;;;;;5032148;28;20124;-71
2023/12/12 09:42:44;;;;;;;1999.90;999.90;;;8.60;99.90;;;;;;5024944;28;20028;-71
2023/12/12 09:45:15;;;;;;;1999.90;999.90;;;8.70;99.90;;;;;;5025696;28;20018;-71
2023/12/12 09:47:45;;;;;;;1999.90;999.90;;;8.70;99.90;;;;;;5032566;28;20016;-71
2023/12/12 09:50:12;;;;;;;1999.90;999.90;;;8.80;99.90;;;;;;5031376;28;20424;-71
2023/12/12 09:52:39;;;;;;;1999.90;999.90;;;8.80;99.90;;;;;;5022903;28;20036;-71
2023/12/12 09:55:06;;;;;;;1999.90;999.90;;;8.90;99.90;;;;;;5028359;28;20037;-71
2023/12/12 09:57:32;;;;;;;1999.90;999.90;;;8.90;99.90;;;;;;5029520;28;20326;-71
2023/12/12 09:59:59;;;;;;;1999.90;999.90;;;9.00;99.90;;;;;;5029104;28;20029;-71
2023/12/12 10:02:35;;;;;;;1999.90;999.90;;;9.00;99.90;;;;;;5031750;28;20086;-71
2023/12/12 10:05:05;;;;;;;1999.90;999.90;;;9.00;99.90;;;;;;5047026;28;20017;-71
2023/12/12 10:07:33;;;;;;;1999.90;999.90;;;9.00;99.90;;;;;;5033938;28;20121;-71
2023/12/12 10:10:00;;;;;;;1999.90;999.90;;;9.10;99.90;;;;;;5021919;28;20030;-71
2023/12/12 10:12:26;;;;;;;1999.90;999.90;;;9.10;99.90;;;;;;5031974;28;20033;-71
2023/12/12 10:14:52;;;;;;;1999.90;999.90;;;9.10;99.90;;;;;;5040798;28;20018;-71
2023/12/12 10:17:23;;;;;;;1999.90;999.90;;;9.10;99.90;;;;;;5032995;28;20155;-71
2023/12/12 10:20:04;;;;;;;1999.90;999.90;;;9.20;99.90;;;;;;5040420;28;20034;-71
2023/12/12 10:22:31;;;;;;;1999.90;999.90;;;9.20;99.90;;;;;;5040201;28;20476;-71
2023/12/12 10:25:17;;;;;;;1999.90;999.90;;;9.30;99.90;;;;;;5028041;28;20100;-71
2023/12/12 10:27:43;;;;;;;1999.90;999.90;;;9.50;99.90;;;;;;5037024;28;20485;-71
2023/12/12 10:30:11;;;;;;;1999.90;999.90;;;9.60;99.90;;;;;;5041825;28;20194;-71
2023/12/12 10:32:38;;;;;;;1999.90;999.90;;;9.60;99.90;;;;;;5027020;28;20045;-71
2023/12/12 10:35:04;;;;;;;1999.90;999.90;;;9.70;99.90;;;;;;5029602;28;20284;-71
2023/12/12 10:37:30;;;;;;;1999.90;999.90;;;9.80;99.90;;;;;;5030447;28;20036;-71
2023/12/12 10:40:10;;;;;;;1999.90;999.90;;;9.80;99.90;;;;;;5037539;28;20026;-71
2023/12/12 10:42:37;;;;;;;1999.90;999.90;;;9.90;99.90;;;;;;5031434;28;20450;-71
2023/12/12 10:45:06;;;;;;;1999.90;999.90;;;10.00;99.90;;;;;;5041643;28;20482;-71
2023/12/12 10:47:34;;;;;;;1999.90;999.90;;;9.90;99.90;;;;;;5024878;28;20033;-71
2023/12/12 10:50:02;;;;;;;1999.90;999.90;;;9.90;99.90;;;;;;5030051;28;20332;-72
2023/12/12 10:52:30;;;;;;;1999.90;999.90;;;9.90;99.90;;;;;;5033147;28;20018;-71
2023/12/12 10:54:59;;;;;;;1999.90;999.90;;;9.90;99.90;;;;;;5028977;28;20029;-71
2023/12/12 10:57:26;;;;;;;1999.90;999.90;;;9.90;99.90;;;;;;5045716;28;20432;-71
2023/12/12 10:59:54;;;;;;;1999.90;999.90;;;10.00;99.90;;;;;;5034831;28;20033;-71
2023/12/12 11:02:21;;;;;;;1999.90;999.90;;;10.00;99.90;;;;;;5029890;28;20040;-71
2023/12/12 11:04:47;;;;;;;1999.90;999.90;;;10.00;99.90;;;;;;5029159;28;20036;-71
2023/12/12 11:07:13;;;;;;;1999.90;999.90;;;10.00;99.90;;;;;;5049726;28;20033;-71
2023/12/12 11:09:39;;;;;;;1999.90;999.90;;;10.00;99.90;;;;;;5030158;28;20413;-71
2023/12/12 11:12:07;;;;;;;1999.90;999.90;;;9.90;99.90;;;;;;5031033;28;20037;-71
2023/12/12 11:14:33;;;;;;;1999.90;999.90;;;9.90;99.90;;;;;;5030344;28;20039;-71
2023/12/12 11:16:59;;;;;;;1999.90;999.90;;;9.90;99.90;;;;;;5045539;28;20324;-71
2023/12/12 11:19:26;;;;;;;1999.90;999.90;;;9.80;99.90;;;;;;5040633;28;20092;-71
2023/12/12 11:21:52;;;;;;;;;;;9.90;99.90;;;;;;5032865;28;20032;-71
2023/12/12 11:24:19;;;;;;;1999.90;999.90;;;10.00;99.90;;;;;;5026567;28;19910;-71
2023/12/12 11:26:52;;;;;;;1999.90;999.90;;;10.10;99.90;;;;;;5040924;28;20044;-71
2023/12/12 11:29:23;;;;;;;1999.90;999.90;;;10.10;99.90;;;;;;5033624;28;20075;-71
2023/12/12 11:32:03;;;;;;;1999.90;999.90;;;10.20;99.90;;;;;;5036301;28;20029;-71
2023/12/12 11:34:40;;;;;;;1999.90;999.90;;;10.20;99.90;;;;;;5028078;28;20033;-71
2023/12/12 11:37:08;;;;;;;1999.90;999.90;;;10.20;99.90;;;;;;5037098;28;20084;-71
2023/12/12 11:39:52;;;;;;;1999.90;999.90;;;10.20;99.90;;;;;;5040843;28;20037;-71
2023/12/12 11:42:22;;;;;;;1999.90;999.90;;;10.20;99.90;;;;;;5031402;28;20046;-71
2023/12/12 11:44:54;;;;;;;1999.90;999.90;;;10.30;99.90;;;;;;5021358;28;20055;-71
2023/12/12 11:47:23;;;;;;;1999.90;999.90;;;10.30;99.90;;;;;;5036519;28;20032;-71
2023/12/12 11:49:50;;;;;;;1999.90;999.90;;;10.30;99.90;;;;;;5034617;28;20031;-71
2023/12/12 11:52:34;;;;;;;;;;;10.40;99.90;;;;;;5036044;28;20333;-71
2023/12/12 11:55:01;;;;;;;1999.90;999.90;;;10.40;99.90;;;;;;5031838;28;19952;-71
2023/12/12 11:57:28;;;;;;;1999.90;999.90;;;10.40;99.90;;;;;;5030460;28;20109;-71
2023/12/12 11:59:54;;;;;;;1999.90;999.90;;;10.50;99.90;;;;;;5044640;28;20041;-71
2023/12/12 12:02:20;;;;;;;1999.90;999.90;;;10.60;99.90;;;;;;5025623;28;20030;-71
2023/12/12 12:04:46;;;;;;;1999.90;999.90;;;10.60;99.90;;;;;;5024692;28;20029;-71
2023/12/12 12:07:12;;;;;;;1999.90;999.90;;;10.60;99.90;;;;;;5042103;28;20029;-71